createdAt,value
2019-05-22T00:02:10.117Z,1.90
2019-05-22T00:04:47.334Z,2.07
2019-05-22T00:07:14.115Z,2.17
2019-05-22T00:09:43.725Z,2.27
2019-05-22T00:12:17.029Z,2.80
2019-05-22T00:14:43.790Z,1.90
2019-05-22T00:17:14.689Z,1.90
2019-05-22T00:19:41.576Z,1.73
2019-05-22T00:22:12.986Z,1.90
2019-05-22T00:24:41.442Z,2.37
2019-05-22T00:27:10.510Z,1.70
2019-05-22T00:29:37.487Z,2.20
2019-05-22T00:32:04.437Z,1.67
2019-05-22T00:34:32.898Z,1.70
2019-05-22T00:36:59.348Z,1.67
2019-05-22T00:39:28.085Z,1.63
2019-05-22T00:41:54.510Z,1.37
2019-05-22T00:44:21.394Z,1.53
2019-05-22T00:46:49.616Z,1.60
2019-05-22T00:49:17.545Z,1.67
2019-05-22T00:52:06.436Z,1.90
2019-05-22T00:54:42.582Z,1.80
2019-05-22T00:57:32.055Z,1.47
2019-05-22T01:00:06.673Z,1.40
2019-05-22T01:02:33.278Z,1.83
2019-05-22T01:04:59.523Z,1.57
2019-05-22T01:07:36.629Z,1.77
2019-05-22T01:10:05.150Z,2.20
2019-05-22T01:12:35.034Z,1.30
2019-05-22T01:15:03.974Z,1.87
2019-05-22T01:17:32.762Z,1.70
2019-05-22T01:20:01.230Z,2.40
2019-05-22T01:22:28.035Z,2.43
2019-05-22T01:24:56.647Z,2.57
2019-05-22T01:27:25.025Z,3.00
2019-05-22T01:29:53.210Z,3.40
2019-05-22T01:32:26.590Z,3.20
2019-05-22T01:34:53.542Z,3.20
2019-05-22T01:37:19.699Z,4.20
2019-05-22T01:39:55.042Z,4.23
2019-05-22T01:42:26.625Z,4.17
2019-05-22T01:45:04.126Z,3.93
2019-05-22T01:47:32.981Z,3.87
2019-05-22T01:49:59.447Z,4.10
2019-05-22T01:52:26.349Z,3.97
2019-05-22T01:54:54.558Z,3.83
2019-05-22T01:57:22.046Z,4.17
2019-05-22T01:59:49.674Z,4.00
2019-05-22T02:02:18.956Z,4.07
2019-05-22T02:04:47.098Z,3.70
2019-05-22T02:07:14.582Z,3.80
2019-05-22T02:09:44.286Z,3.60
2019-05-22T02:12:16.980Z,3.90
2019-05-22T02:14:45.747Z,3.50
2019-05-22T02:17:13.921Z,3.60
2019-05-22T02:19:40.372Z,3.53
2019-05-22T02:22:09.099Z,3.40
2019-05-22T02:24:36.670Z,3.13
2019-05-22T02:27:05.083Z,3.50
2019-05-22T02:29:32.021Z,3.57
2019-05-22T02:31:58.285Z,2.70
2019-05-22T02:34:25.413Z,3.50
2019-05-22T02:39:39.865Z,3.07
2019-05-22T02:42:12.332Z,2.70
2019-05-22T02:44:39.841Z,3.10
2019-05-22T02:47:19.086Z,3.33
2019-05-22T02:49:38.382Z,3.37
2019-05-22T02:52:07.964Z,3.60
2019-05-22T02:54:35.216Z,3.50
2019-05-22T02:57:03.019Z,3.43
2019-05-22T02:59:30.486Z,3.50
2019-05-22T03:01:57.942Z,3.60
2019-05-22T03:04:27.113Z,3.67
2019-05-22T03:06:54.469Z,3.60
2019-05-22T03:09:26.051Z,3.83
2019-05-22T03:12:00.656Z,3.47
2019-05-22T03:14:28.453Z,3.80
2019-05-22T03:16:57.606Z,4.23
2019-05-22T03:19:32.907Z,3.97
2019-05-22T03:22:00.525Z,4.67
2019-05-22T03:24:28.146Z,4.70
2019-05-22T03:26:55.205Z,4.53
2019-05-22T03:29:31.630Z,4.17
2019-05-22T03:31:59.517Z,5.20
2019-05-22T03:34:26.524Z,5.20
2019-05-22T03:36:53.276Z,5.07
2019-05-22T03:39:21.210Z,5.07
2019-05-22T03:41:49.109Z,5.07
2019-05-22T03:44:16.651Z,5.90
2019-05-22T03:46:45.568Z,5.97
2019-05-22T03:49:29.054Z,5.93
2019-05-22T03:51:46.292Z,5.97
2019-05-22T03:54:13.665Z,5.50
2019-05-22T03:56:41.725Z,5.70
2019-05-22T03:59:08.610Z,5.47
2019-05-22T04:01:35.769Z,6.40
2019-05-22T04:04:06.620Z,6.13
2019-05-22T04:06:34.697Z,6.00
2019-05-22T04:09:16.713Z,6.20
2019-05-22T04:11:45.756Z,5.10
2019-05-22T04:14:12.676Z,6.47
2019-05-22T04:16:40.094Z,6.40
2019-05-22T04:19:07.140Z,6.27
2019-05-22T04:21:34.820Z,5.90
2019-05-22T04:24:02.098Z,5.47
2019-05-22T04:26:28.944Z,5.60
2019-05-22T04:28:56.303Z,5.97
2019-05-22T04:31:45.282Z,5.53
2019-05-22T04:34:12.054Z,5.07
2019-05-22T04:36:39.536Z,5.90
2019-05-22T04:39:12.226Z,5.13
2019-05-22T04:41:40.055Z,4.70
2019-05-22T04:44:07.014Z,5.90
2019-05-22T04:46:33.845Z,5.07
2019-05-22T04:49:01.335Z,5.03
2019-05-22T04:51:30.463Z,5.23
2019-05-22T04:53:57.508Z,4.80
2019-05-22T04:56:24.873Z,5.40
2019-05-22T04:58:52.649Z,5.23
2019-05-22T05:01:20.482Z,4.60
2019-05-22T05:03:47.302Z,5.10
2019-05-22T05:06:14.238Z,5.07
2019-05-22T05:08:40.965Z,4.87
2019-05-22T05:11:08.538Z,4.57
2019-05-22T05:13:35.120Z,4.87
2019-05-22T05:16:02.211Z,4.20
2019-05-22T05:18:29.265Z,4.77
2019-05-22T05:20:56.103Z,4.97
2019-05-22T05:23:22.869Z,4.60
2019-05-22T05:25:49.429Z,5.63
2019-05-22T05:28:16.428Z,5.30
2019-05-22T05:30:43.421Z,5.00
2019-05-22T05:33:10.962Z,4.60
2019-05-22T05:35:37.915Z,4.87
2019-05-22T05:38:05.109Z,4.67
2019-05-22T05:40:38.545Z,4.70
2019-05-22T05:43:06.555Z,4.90
2019-05-22T05:45:34.169Z,5.10
2019-05-22T05:48:03.639Z,4.60
2019-05-22T05:50:39.690Z,5.03
2019-05-22T05:53:05.649Z,5.43
2019-05-22T05:56:16.112Z,5.17
2019-05-22T05:58:43.053Z,5.30
2019-05-22T06:01:38.159Z,6.10
2019-05-22T06:04:05.822Z,5.00
2019-05-22T06:07:15.166Z,5.87
2019-05-22T06:09:41.948Z,6.67
2019-05-22T06:12:11.273Z,6.47
2019-05-22T06:14:40.599Z,6.60
2019-05-22T06:17:56.942Z,5.90
2019-05-22T06:20:24.355Z,6.97
2019-05-22T06:23:47.747Z,6.97
2019-05-22T06:26:59.283Z,6.40
2019-05-22T06:29:32.294Z,6.97
2019-05-22T06:32:42.392Z,6.53
2019-05-22T06:35:11.325Z,6.57
2019-05-22T06:38:07.190Z,6.73
2019-05-22T06:40:34.122Z,6.90
2019-05-22T06:43:58.560Z,6.47
2019-05-22T06:46:45.271Z,6.13
2019-05-22T06:49:37.835Z,6.67
2019-05-22T06:52:05.646Z,6.53
2019-05-22T06:54:32.378Z,7.40
2019-05-22T06:56:59.149Z,6.87
2019-05-22T06:59:25.996Z,6.30
2019-05-22T07:02:01.508Z,7.53
2019-05-22T07:04:23.193Z,6.97
2019-05-22T07:06:50.340Z,6.57
2019-05-22T07:09:18.479Z,8.37
2019-05-22T07:11:46.100Z,8.63
2019-05-22T07:14:13.303Z,8.17
2019-05-22T07:16:40.749Z,7.40
2019-05-22T07:19:09.446Z,8.03
2019-05-22T07:21:36.123Z,7.07
2019-05-22T07:24:03.704Z,8.60
2019-05-22T07:26:31.969Z,8.30
2019-05-22T07:29:02.728Z,7.20
2019-05-22T07:31:27.714Z,7.73
2019-05-22T07:33:54.772Z,7.97
2019-05-22T07:36:21.742Z,8.07
2019-05-22T07:38:48.588Z,7.57
2019-05-22T07:41:15.274Z,8.70
2019-05-22T07:43:42.650Z,7.03
2019-05-22T07:46:09.469Z,8.13
2019-05-22T07:48:36.720Z,7.20
2019-05-22T07:51:04.101Z,7.63
2019-05-22T07:53:31.340Z,8.23
2019-05-22T07:55:58.819Z,7.37
2019-05-22T07:58:27.207Z,7.10
2019-05-22T08:00:56.615Z,7.60
2019-05-22T08:03:24.391Z,7.50
2019-05-22T08:05:53.049Z,7.33
2019-05-22T08:08:20.079Z,6.87
2019-05-22T08:10:46.920Z,6.57
2019-05-22T08:13:13.959Z,6.93
2019-05-22T08:15:40.618Z,6.87
2019-05-22T08:18:07.853Z,7.73
2019-05-22T08:20:34.990Z,7.70
2019-05-22T08:23:01.958Z,7.30
2019-05-22T08:25:29.543Z,6.63
2019-05-22T08:27:57.440Z,7.00
2019-05-22T08:30:24.430Z,7.70
2019-05-22T08:32:52.225Z,6.83
2019-05-22T08:35:19.500Z,6.93
2019-05-22T08:37:47.492Z,6.77
2019-05-22T08:40:17.023Z,7.17
2019-05-22T08:42:43.810Z,7.57
2019-05-22T08:45:11.515Z,7.50
2019-05-22T08:47:38.666Z,6.50
2019-05-22T08:50:06.225Z,7.40
2019-05-22T08:52:33.093Z,6.33
2019-05-22T08:55:01.123Z,6.23
2019-05-22T08:57:29.440Z,6.93
2019-05-22T08:59:56.804Z,5.80
2019-05-22T09:02:23.847Z,6.90
2019-05-22T09:04:50.740Z,5.93
2019-05-22T09:07:19.370Z,5.77
2019-05-22T09:09:46.263Z,5.73
2019-05-22T09:12:13.771Z,5.53
2019-05-22T09:14:41.778Z,5.53
2019-05-22T09:17:10.951Z,5.47
2019-05-22T09:19:38.019Z,5.53
2019-05-22T09:22:06.661Z,5.67
2019-05-22T09:24:33.910Z,5.10
2019-05-22T09:27:02.978Z,4.97
2019-05-22T09:29:30.051Z,5.07
2019-05-22T09:31:57.151Z,4.20
2019-05-22T09:34:23.964Z,4.20
2019-05-22T09:36:50.976Z,4.23
2019-05-22T09:39:18.023Z,5.17
2019-05-22T09:41:45.067Z,4.50
2019-05-22T09:44:15.183Z,4.50
2019-05-22T09:46:40.820Z,4.07
2019-05-22T09:49:09.902Z,4.30
2019-05-22T09:51:37.290Z,4.53
2019-05-22T09:54:04.852Z,3.77
2019-05-22T09:56:31.637Z,4.30
2019-05-22T09:58:58.441Z,4.37
2019-05-22T10:01:25.483Z,3.70
2019-05-22T10:03:52.185Z,4.40
2019-05-22T10:06:21.656Z,3.77
2019-05-22T10:08:48.529Z,4.43
2019-05-22T10:11:15.236Z,4.63
2019-05-22T10:13:42.159Z,4.73
2019-05-22T10:16:09.167Z,4.63
2019-05-22T10:18:36.552Z,4.97
2019-05-22T10:21:03.544Z,4.93
2019-05-22T10:23:30.333Z,4.97
2019-05-22T10:25:59.877Z,5.03
2019-05-22T10:28:27.447Z,5.20
2019-05-22T10:30:55.476Z,5.23
2019-05-22T10:33:23.135Z,5.90
2019-05-22T10:35:51.208Z,6.10
2019-05-22T10:38:18.343Z,5.10
2019-05-22T10:40:45.378Z,6.40
2019-05-22T10:43:12.206Z,6.20
2019-05-22T10:45:39.083Z,6.37
2019-05-22T10:48:05.913Z,5.50
2019-05-22T10:50:33.200Z,5.53
2019-05-22T10:53:00.217Z,6.97
2019-05-22T10:55:27.332Z,6.93
2019-05-22T10:57:54.187Z,7.63
2019-05-22T11:00:22.742Z,6.53
2019-05-22T11:02:49.473Z,6.40
2019-05-22T11:05:18.376Z,6.97
2019-05-22T11:07:45.646Z,6.17
2019-05-22T11:10:12.979Z,6.13
2019-05-22T11:12:40.363Z,7.20
2019-05-22T11:15:08.520Z,7.20
2019-05-22T11:17:35.570Z,6.70
2019-05-22T11:20:02.645Z,5.57
2019-05-22T11:22:31.056Z,6.83
2019-05-22T11:24:58.067Z,6.27
2019-05-22T11:27:25.410Z,5.87
2019-05-22T11:29:53.226Z,6.03
2019-05-22T11:32:21.154Z,5.90
2019-05-22T11:34:48.161Z,5.67
2019-05-22T11:37:15.351Z,5.00
2019-05-22T11:39:44.972Z,5.67
2019-05-22T11:42:13.347Z,5.17
2019-05-22T11:44:40.294Z,4.63
2019-05-22T11:47:08.530Z,4.47
2019-05-22T11:49:35.622Z,4.57
2019-05-22T11:52:02.872Z,4.97
2019-05-22T11:54:32.582Z,4.47
2019-05-22T11:56:59.567Z,5.10
2019-05-22T11:59:26.901Z,5.17
2019-05-22T12:01:53.645Z,4.33
2019-05-22T12:04:20.426Z,4.77
2019-05-22T12:06:53.086Z,4.70
2019-05-22T12:09:18.494Z,4.83
2019-05-22T12:11:45.496Z,4.57
2019-05-22T12:14:12.616Z,5.47
2019-05-22T12:16:40.705Z,4.67
2019-05-22T12:19:08.724Z,4.73
2019-05-22T12:21:36.007Z,4.80
2019-05-22T12:24:02.814Z,5.50
2019-05-22T12:26:29.586Z,5.20
2019-05-22T12:28:56.339Z,5.20
2019-05-22T12:31:23.115Z,5.73
2019-05-22T12:33:50.005Z,5.50
2019-05-22T12:36:17.359Z,5.40
2019-05-22T12:38:44.542Z,5.93
2019-05-22T12:41:12.580Z,6.10
2019-05-22T12:43:39.682Z,6.17
2019-05-22T12:46:06.801Z,5.63
2019-05-22T12:48:33.963Z,5.93
2019-05-22T12:51:00.883Z,6.90
2019-05-22T12:53:28.693Z,6.23
2019-05-22T12:55:55.483Z,6.53
2019-05-22T12:58:22.307Z,5.57
2019-05-22T13:00:50.227Z,6.20
2019-05-22T13:03:17.393Z,6.93
2019-05-22T13:05:45.036Z,6.37
2019-05-22T13:08:12.862Z,6.00
2019-05-22T13:10:40.165Z,6.07
2019-05-22T13:13:07.363Z,6.03
2019-05-22T13:15:36.830Z,6.43
2019-05-22T13:18:04.707Z,5.57
2019-05-22T13:20:42.496Z,6.40
2019-05-22T13:23:06.563Z,6.03
2019-05-22T13:25:35.610Z,6.10
2019-05-22T13:28:03.465Z,5.97
2019-05-22T13:30:31.866Z,5.60
2019-05-22T13:32:59.257Z,6.40
2019-05-22T13:35:27.515Z,6.27
2019-05-22T13:37:54.735Z,6.80
2019-05-22T13:40:27.554Z,7.10
2019-05-22T13:42:51.345Z,6.80
2019-05-22T13:45:29.174Z,6.43
2019-05-22T13:47:48.768Z,6.70
2019-05-22T13:50:16.648Z,6.60
2019-05-22T13:52:43.840Z,5.80
2019-05-22T13:55:11.224Z,5.30
2019-05-22T13:57:40.092Z,5.47
2019-05-22T14:00:09.519Z,5.23
2019-05-22T14:02:36.235Z,5.90
2019-05-22T14:05:03.406Z,5.53
2019-05-22T14:07:30.207Z,5.27
2019-05-22T14:09:57.108Z,5.57
2019-05-22T14:12:24.436Z,5.53
2019-05-22T14:14:51.189Z,5.00
2019-05-22T14:17:17.960Z,5.70
2019-05-22T14:19:44.775Z,4.73
2019-05-22T14:22:11.984Z,5.87
2019-05-22T14:24:38.647Z,5.97
2019-05-22T14:27:05.399Z,6.03
2019-05-22T14:29:32.962Z,5.87
2019-05-22T14:32:02.676Z,5.90
2019-05-22T14:34:30.054Z,6.27
2019-05-22T14:36:56.837Z,6.17
2019-05-22T14:39:23.964Z,5.70
2019-05-22T14:41:51.049Z,6.20
2019-05-22T14:44:17.886Z,6.10
2019-05-22T14:46:44.566Z,5.77
2019-05-22T14:49:11.240Z,6.40
2019-05-22T14:51:38.004Z,6.27
2019-05-22T14:54:06.632Z,6.20
2019-05-22T14:56:33.931Z,5.87
2019-05-22T14:59:01.384Z,6.47
2019-05-22T15:01:28.184Z,6.23
2019-05-22T15:03:54.929Z,7.00
2019-05-22T15:06:22.465Z,6.30
2019-05-22T15:08:49.277Z,6.07
2019-05-22T15:11:16.468Z,5.63
2019-05-22T15:13:43.245Z,6.07
2019-05-22T15:16:10.544Z,5.80
2019-05-22T15:18:37.745Z,5.53
2019-05-22T15:21:07.464Z,6.10
2019-05-22T15:23:34.501Z,6.10
2019-05-22T15:26:01.768Z,6.57
2019-05-22T15:28:29.010Z,6.70
2019-05-22T15:30:55.749Z,7.47
2019-05-22T15:33:23.034Z,6.67
2019-05-22T15:35:50.453Z,6.40
2019-05-22T15:38:18.523Z,6.57
2019-05-22T15:40:45.438Z,6.17
2019-05-22T15:43:13.526Z,7.27
2019-05-22T15:45:41.156Z,7.47
2019-05-22T15:48:12.477Z,5.67
2019-05-22T15:50:41.623Z,6.07
2019-05-22T15:53:14.314Z,6.17
2019-05-22T15:55:40.570Z,5.90
2019-05-22T15:58:09.058Z,5.77
2019-05-22T16:00:38.199Z,6.57
2019-05-22T16:03:09.356Z,6.53
2019-05-22T16:05:36.951Z,6.40
2019-05-22T16:08:04.509Z,6.73
2019-05-22T16:10:31.365Z,6.37
2019-05-22T16:12:59.318Z,6.87
2019-05-22T16:15:27.498Z,7.47
2019-05-22T16:18:10.322Z,6.07
2019-05-22T16:20:25.434Z,6.37
2019-05-22T16:22:53.641Z,5.87
2019-05-22T16:25:21.834Z,6.33
2019-05-22T16:27:49.398Z,6.00
2019-05-22T16:30:17.188Z,6.43
2019-05-22T16:32:44.393Z,6.10
2019-05-22T16:35:11.451Z,6.33
2019-05-22T16:37:38.330Z,5.60
2019-05-22T16:40:05.224Z,6.40
2019-05-22T16:42:32.349Z,5.90
2019-05-22T16:44:59.287Z,6.40
2019-05-22T16:47:26.782Z,5.80
2019-05-22T16:49:53.751Z,5.73
2019-05-22T16:52:23.106Z,5.00
2019-05-22T16:54:50.451Z,5.00
2019-05-22T16:57:18.266Z,5.37
2019-05-22T16:59:45.677Z,5.37
2019-05-22T17:02:13.396Z,5.73
2019-05-22T17:04:40.652Z,6.03
2019-05-22T17:07:08.057Z,5.20
2019-05-22T17:09:36.735Z,5.43
2019-05-22T17:12:05.921Z,5.20
2019-05-22T17:14:32.727Z,5.03
2019-05-22T17:16:59.839Z,4.97
2019-05-22T17:19:28.017Z,3.93
2019-05-22T17:21:55.985Z,4.10
2019-05-22T17:24:23.160Z,4.57
2019-05-22T17:26:51.765Z,5.33
2019-05-22T17:29:18.511Z,5.33
2019-05-22T17:31:45.373Z,5.10
2019-05-22T17:34:30.212Z,4.70
2019-05-22T17:36:57.328Z,3.80
2019-05-22T17:39:24.998Z,3.97
2019-05-22T17:41:56.238Z,4.57
2019-05-22T17:44:21.776Z,4.50
2019-05-22T17:46:48.598Z,3.97
2019-05-22T17:49:15.683Z,4.40
2019-05-22T17:51:42.617Z,3.90
2019-05-22T17:54:10.279Z,4.03
2019-05-22T17:56:37.571Z,4.70
2019-05-22T17:59:04.807Z,3.83
2019-05-22T18:01:32.842Z,4.33
2019-05-22T18:03:59.701Z,4.40
2019-05-22T18:06:26.852Z,3.97
2019-05-22T18:08:53.980Z,3.90
2019-05-22T18:11:20.645Z,3.50
2019-05-22T18:13:57.972Z,3.73
2019-05-22T18:16:24.636Z,3.17
2019-05-22T18:18:51.545Z,3.73
2019-05-22T18:21:18.461Z,3.70
2019-05-22T18:23:45.909Z,4.40
2019-05-22T18:26:12.886Z,3.43
2019-05-22T18:28:39.709Z,3.33
2019-05-22T18:31:06.400Z,3.97
2019-05-22T18:33:34.195Z,3.70
2019-05-22T18:36:00.969Z,3.30
2019-05-22T18:38:28.007Z,3.93
2019-05-22T18:40:54.610Z,3.43
2019-05-22T18:43:23.158Z,3.47
2019-05-22T18:45:50.089Z,3.27
2019-05-22T18:48:17.097Z,3.67
2019-05-22T18:50:44.271Z,3.03
2019-05-22T18:53:11.075Z,2.83
2019-05-22T18:55:37.720Z,3.53
2019-05-22T18:58:04.819Z,3.10
2019-05-22T19:00:32.776Z,3.57
2019-05-22T19:02:59.620Z,3.20
2019-05-22T19:05:28.515Z,3.50
2019-05-22T19:07:55.404Z,3.37
2019-05-22T19:10:22.385Z,3.67
2019-05-22T19:12:49.470Z,3.57
2019-05-22T19:15:16.360Z,4.20
2019-05-22T19:17:43.081Z,4.27
2019-05-22T19:20:10.326Z,4.80
2019-05-22T19:22:38.181Z,4.50
2019-05-22T19:25:05.147Z,4.70
2019-05-22T19:27:31.914Z,3.97
2019-05-22T19:29:58.747Z,4.50
2019-05-22T19:32:25.713Z,4.63
2019-05-22T19:34:52.605Z,4.73
2019-05-22T19:37:19.351Z,4.63
2019-05-22T19:39:46.282Z,4.90
2019-05-22T19:42:14.361Z,4.90
2019-05-22T19:44:41.481Z,4.13
2019-05-22T19:47:09.598Z,4.60
2019-05-22T19:49:37.036Z,5.50
2019-05-22T19:52:05.552Z,4.03
2019-05-22T19:54:32.623Z,5.00
2019-05-22T19:56:59.572Z,4.73
2019-05-22T19:59:28.438Z,5.50
2019-05-22T20:01:55.427Z,4.87
2019-05-22T20:04:22.414Z,4.83
2019-05-22T20:06:49.327Z,5.27
2019-05-22T20:09:18.403Z,4.90
2019-05-22T20:11:45.300Z,4.80
2019-05-22T20:14:13.929Z,5.40
2019-05-22T20:16:41.016Z,5.63
2019-05-22T20:19:09.291Z,5.00
2019-05-22T20:21:36.317Z,4.60
2019-05-22T20:24:05.284Z,5.10
2019-05-22T20:26:32.239Z,4.83
2019-05-22T20:28:59.505Z,5.13
2019-05-22T20:31:26.563Z,4.60
2019-05-22T20:33:53.552Z,5.13
2019-05-22T20:36:21.881Z,5.10
2019-05-22T20:38:48.858Z,4.80
2019-05-22T20:41:16.317Z,4.73
2019-05-22T20:43:43.233Z,5.07
2019-05-22T20:46:10.372Z,5.07
2019-05-22T20:48:37.753Z,4.73
2019-05-22T20:51:06.504Z,4.57
2019-05-22T20:53:34.664Z,5.03
2019-05-22T20:56:02.563Z,4.77
2019-05-22T20:58:30.210Z,4.20
2019-05-22T21:00:57.674Z,5.30
2019-05-22T21:03:25.102Z,5.20
2019-05-22T21:05:53.752Z,5.07
2019-05-22T21:08:23.814Z,4.43
2019-05-22T21:10:51.636Z,4.43
2019-05-22T21:13:18.581Z,5.27
2019-05-22T21:15:46.766Z,4.93
2019-05-22T21:18:15.525Z,4.90
2019-05-22T21:20:54.273Z,5.00
2019-05-22T21:23:11.802Z,4.37
2019-05-22T21:25:38.685Z,4.93
2019-05-22T21:28:05.619Z,4.77
2019-05-22T21:30:33.159Z,4.67
2019-05-22T21:32:59.808Z,4.37
2019-05-22T21:35:26.582Z,4.97
2019-05-22T21:37:53.303Z,4.80
2019-05-22T21:40:22.210Z,5.20
2019-05-22T21:42:50.430Z,5.07
2019-05-22T21:45:17.361Z,5.10
2019-05-22T21:47:45.302Z,5.00
2019-05-22T21:50:12.789Z,5.03
2019-05-22T21:52:39.734Z,6.10
2019-05-22T21:55:09.662Z,5.17
2019-05-22T21:57:37.681Z,4.73
2019-05-22T22:00:09.078Z,4.37
2019-05-22T22:02:37.802Z,4.43
2019-05-22T22:05:05.444Z,4.10
2019-05-22T22:07:31.995Z,4.20
2019-05-22T22:09:58.835Z,4.17
2019-05-22T22:12:26.283Z,3.67
2019-05-22T22:14:53.241Z,3.40
2019-05-22T22:17:20.372Z,3.37
2019-05-22T22:19:48.572Z,3.43
2019-05-22T22:22:23.092Z,3.20
2019-05-22T22:24:50.240Z,2.60
2019-05-22T22:27:17.821Z,3.47
2019-05-22T22:29:45.464Z,2.93
2019-05-22T22:32:12.498Z,2.83
2019-05-22T22:34:44.854Z,3.00
2019-05-22T22:37:12.421Z,2.70
2019-05-22T22:39:41.496Z,3.53
2019-05-22T22:42:10.969Z,3.30
2019-05-22T22:44:37.757Z,3.83
2019-05-22T22:47:10.656Z,4.00
2019-05-22T22:49:37.975Z,3.80
2019-05-22T22:52:05.623Z,3.93
2019-05-22T22:54:33.554Z,3.63
2019-05-22T22:57:00.218Z,3.60
2019-05-22T22:59:27.612Z,3.47
2019-05-22T23:01:56.455Z,3.70
2019-05-22T23:04:23.959Z,4.00
2019-05-22T23:06:52.261Z,4.10
2019-05-22T23:09:19.611Z,3.87
2019-05-22T23:11:47.744Z,3.43
2019-05-22T23:14:15.043Z,3.53
2019-05-22T23:16:42.091Z,3.30
2019-05-22T23:19:31.391Z,3.77
2019-05-22T23:22:00.626Z,3.53
2019-05-22T23:24:28.964Z,4.40
2019-05-22T23:26:56.462Z,3.73
2019-05-22T23:29:23.325Z,3.90
2019-05-22T23:31:50.269Z,4.33
2019-05-22T23:34:17.698Z,3.60
2019-05-22T23:36:44.555Z,3.60
2019-05-22T23:39:11.974Z,3.50
2019-05-22T23:41:40.509Z,3.80
2019-05-22T23:44:10.409Z,3.97
2019-05-22T23:46:37.579Z,3.60
2019-05-22T23:49:04.355Z,3.43
2019-05-22T23:51:31.677Z,3.37
2019-05-22T23:54:01.829Z,4.00
2019-05-22T23:56:28.585Z,3.73
2019-05-22T23:58:55.447Z,3.27
